createdAt,value
2018-08-18T00:00:37.072Z,0
2018-08-18T00:01:36.797Z,0
2018-08-18T00:02:36.793Z,0
2018-08-18T00:03:36.793Z,0
2018-08-18T00:04:36.865Z,0
2018-08-18T00:05:36.866Z,0
2018-08-18T00:06:36.767Z,0
2018-08-18T00:07:36.857Z,0
2018-08-18T00:08:36.861Z,0
2018-08-18T00:09:36.818Z,0
2018-08-18T00:10:36.816Z,0
2018-08-18T00:11:36.771Z,0
2018-08-18T00:12:36.771Z,0
2018-08-18T00:13:36.768Z,0
2018-08-18T00:14:36.818Z,0
2018-08-18T00:15:36.774Z,0
2018-08-18T00:16:36.872Z,0
2018-08-18T00:17:36.801Z,0
2018-08-18T00:18:36.872Z,0
2018-08-18T00:19:36.825Z,0
2018-08-18T00:20:36.884Z,0
2018-08-18T00:21:36.879Z,0
2018-08-18T00:22:36.813Z,0
2018-08-18T00:23:36.878Z,0
2018-08-18T00:24:36.804Z,0
2018-08-18T00:25:36.879Z,0
2018-08-18T00:26:36.837Z,0
2018-08-18T00:27:36.837Z,0
2018-08-18T00:28:36.829Z,0
2018-08-18T00:29:36.732Z,0
2018-08-18T00:30:36.841Z,0
2018-08-18T00:31:36.771Z,0
2018-08-18T00:32:36.827Z,0
2018-08-18T00:33:36.761Z,0
2018-08-18T00:34:36.808Z,0
2018-08-18T00:35:36.796Z,0
2018-08-18T00:36:36.849Z,0
2018-08-18T00:37:36.875Z,0
2018-08-18T00:38:36.812Z,0
2018-08-18T00:39:36.769Z,0
2018-08-18T00:40:37.081Z,0
2018-08-18T00:41:36.748Z,0
2018-08-18T00:42:36.855Z,0
2018-08-18T00:43:36.854Z,0
2018-08-18T00:44:36.790Z,0
2018-08-18T00:45:36.834Z,0
2018-08-18T00:46:36.893Z,0
2018-08-18T00:47:36.822Z,0
2018-08-18T00:48:36.829Z,0
2018-08-18T00:49:36.896Z,0
2018-08-18T00:50:36.897Z,0
2018-08-18T00:51:36.831Z,0
2018-08-18T00:52:36.897Z,0
2018-08-18T00:53:36.828Z,0
2018-08-18T00:54:36.897Z,0
2018-08-18T00:55:36.828Z,0
2018-08-18T00:56:36.801Z,0
2018-08-18T00:57:36.792Z,0
2018-08-18T00:58:36.881Z,0
2018-08-18T00:59:36.902Z,0
2018-08-18T01:00:36.867Z,0
2018-08-18T01:01:36.866Z,0
2018-08-18T01:02:36.892Z,0
2018-08-18T01:03:36.777Z,0
2018-08-18T01:04:36.873Z,0
2018-08-18T01:05:36.869Z,0
2018-08-18T01:06:36.905Z,0
2018-08-18T01:07:36.838Z,0
2018-08-18T01:08:36.910Z,0
2018-08-18T01:09:36.838Z,0
2018-08-18T01:10:36.939Z,0
2018-08-18T01:11:37.012Z,0
2018-08-18T01:12:36.997Z,0
2018-08-18T01:13:36.923Z,0
2018-08-18T01:14:36.840Z,0
2018-08-18T01:15:36.919Z,0
2018-08-18T01:16:36.861Z,0
2018-08-18T01:17:36.777Z,0
2018-08-18T01:18:36.816Z,0
2018-08-18T01:19:36.779Z,0
2018-08-18T01:20:36.902Z,0
2018-08-18T01:21:36.820Z,0
2018-08-18T01:22:36.782Z,0
2018-08-18T01:23:36.795Z,0
2018-08-18T01:24:36.820Z,0
2018-08-18T01:25:36.849Z,0
2018-08-18T01:26:36.848Z,0
2018-08-18T01:27:36.854Z,0
2018-08-18T01:28:36.784Z,0
2018-08-18T01:29:36.851Z,0
2018-08-18T01:30:36.911Z,0
2018-08-18T01:31:36.909Z,0
2018-08-18T01:32:36.828Z,0
2018-08-18T01:33:36.869Z,0
2018-08-18T01:34:36.821Z,0
2018-08-18T01:35:36.874Z,0
2018-08-18T01:36:36.859Z,0
2018-08-18T01:37:36.927Z,0
2018-08-18T01:38:36.860Z,0
2018-08-18T01:39:36.930Z,0
2018-08-18T01:40:36.928Z,0
2018-08-18T01:41:36.860Z,0
2018-08-18T01:42:36.936Z,0
2018-08-18T01:43:36.933Z,0
2018-08-18T01:44:36.867Z,0
2018-08-18T01:45:36.934Z,0
2018-08-18T01:46:36.864Z,0
2018-08-18T01:47:36.935Z,0
2018-08-18T01:48:36.890Z,0
2018-08-18T01:49:36.945Z,0
2018-08-18T01:50:36.872Z,0
2018-08-18T01:51:36.880Z,0
2018-08-18T01:52:36.938Z,0
2018-08-18T01:53:36.938Z,0
2018-08-18T01:54:36.884Z,0
2018-08-18T01:55:36.938Z,0
2018-08-18T01:56:36.870Z,0
2018-08-18T01:57:36.846Z,0
2018-08-18T01:58:36.824Z,0
2018-08-18T01:59:36.892Z,0
2018-08-18T02:00:36.912Z,0
2018-08-18T02:01:36.931Z,0
2018-08-18T02:02:36.849Z,0
2018-08-18T02:03:36.917Z,0
2018-08-18T02:04:36.911Z,0
2018-08-18T02:05:36.852Z,0
2018-08-18T02:06:36.948Z,0
2018-08-18T02:07:36.968Z,0
2018-08-18T02:08:36.886Z,0
2018-08-18T02:09:36.949Z,0
2018-08-18T02:10:36.953Z,0
2018-08-18T02:11:36.882Z,0
2018-08-18T02:12:36.953Z,0
2018-08-18T02:13:36.884Z,0
2018-08-18T02:14:36.953Z,0
2018-08-18T02:15:36.889Z,0
2018-08-18T02:16:36.960Z,0
2018-08-18T02:17:36.956Z,0
2018-08-18T02:18:36.886Z,0
2018-08-18T02:19:36.957Z,0
2018-08-18T02:20:36.957Z,0
2018-08-18T02:21:36.958Z,0
2018-08-18T02:22:36.886Z,0
2018-08-18T02:23:36.970Z,0
2018-08-18T02:24:36.920Z,0
2018-08-18T02:25:36.964Z,0
2018-08-18T02:26:36.962Z,0
2018-08-18T02:27:36.962Z,0
2018-08-18T02:28:36.965Z,0
2018-08-18T02:29:36.969Z,0
2018-08-18T02:30:36.901Z,0
2018-08-18T02:31:36.966Z,0
2018-08-18T02:32:36.942Z,0
2018-08-18T02:33:36.928Z,0
2018-08-18T02:34:36.899Z,0
2018-08-18T02:35:36.903Z,0
2018-08-18T02:36:36.971Z,0
2018-08-18T02:37:36.872Z,0
2018-08-18T02:38:36.852Z,0
2018-08-18T02:39:36.973Z,0
2018-08-18T02:40:36.875Z,0
2018-08-18T02:41:36.905Z,0
2018-08-18T02:42:36.856Z,0
2018-08-18T02:43:36.961Z,0
2018-08-18T02:44:36.905Z,0
2018-08-18T02:45:36.875Z,0
2018-08-18T02:46:36.838Z,0
2018-08-18T02:47:36.876Z,0
2018-08-18T02:48:36.880Z,0
2018-08-18T02:49:36.909Z,0
2018-08-18T02:50:36.879Z,0
2018-08-18T02:51:36.877Z,0
2018-08-18T02:52:36.945Z,0
2018-08-18T02:53:36.884Z,0
2018-08-18T02:54:36.981Z,0
2018-08-18T02:55:36.954Z,0
2018-08-18T02:56:36.848Z,0
2018-08-18T02:57:36.871Z,0
2018-08-18T02:58:36.874Z,0
2018-08-18T02:59:36.845Z,0
2018-08-18T03:00:36.871Z,0
2018-08-18T03:01:36.867Z,0
2018-08-18T03:02:36.872Z,0
2018-08-18T03:03:36.945Z,0
2018-08-18T03:04:36.945Z,0
2018-08-18T03:05:36.937Z,0
2018-08-18T03:06:36.947Z,0
2018-08-18T03:07:36.891Z,0
2018-08-18T03:08:36.978Z,0
2018-08-18T03:09:36.874Z,0
2018-08-18T03:10:36.964Z,0
2018-08-18T03:11:36.982Z,0
2018-08-18T03:12:36.945Z,0
2018-08-18T03:13:36.894Z,0
2018-08-18T03:14:36.896Z,0
2018-08-18T03:15:36.989Z,0
2018-08-18T03:16:36.947Z,0
2018-08-18T03:17:36.903Z,0
2018-08-18T03:18:36.992Z,0
2018-08-18T03:19:36.879Z,0
2018-08-18T03:20:36.998Z,0
2018-08-18T03:21:36.899Z,0
2018-08-18T03:22:36.966Z,0
2018-08-18T03:23:36.898Z,0
2018-08-18T03:24:36.953Z,0
2018-08-18T03:25:36.904Z,0
2018-08-18T03:26:36.886Z,0
2018-08-18T03:27:36.896Z,0
2018-08-18T03:28:36.957Z,0
2018-08-18T03:29:36.867Z,0
2018-08-18T03:30:36.914Z,0
2018-08-18T03:31:36.959Z,0
2018-08-18T03:32:36.930Z,0
2018-08-18T03:33:36.970Z,0
2018-08-18T03:34:36.878Z,0
2018-08-18T03:35:36.864Z,0
2018-08-18T03:36:36.895Z,0
2018-08-18T03:37:36.897Z,0
2018-08-18T03:38:36.933Z,0
2018-08-18T03:39:36.962Z,0
2018-08-18T03:40:36.975Z,0
2018-08-18T03:41:36.923Z,0
2018-08-18T03:42:36.868Z,0
2018-08-18T03:43:36.947Z,0
2018-08-18T03:44:36.946Z,0
2018-08-18T03:45:36.967Z,0
2018-08-18T03:46:36.883Z,0
2018-08-18T03:47:37.017Z,0
2018-08-18T03:48:37.018Z,0
2018-08-18T03:49:36.948Z,0
2018-08-18T03:50:37.023Z,0
2018-08-18T03:51:37.020Z,0
2018-08-18T03:52:37.023Z,0
2018-08-18T03:53:37.023Z,0
2018-08-18T03:54:37.024Z,0
2018-08-18T03:55:36.956Z,0
2018-08-18T03:56:36.959Z,0
2018-08-18T03:57:37.026Z,0
2018-08-18T03:58:36.958Z,0
2018-08-18T03:59:37.027Z,0
2018-08-18T04:00:37.032Z,0
2018-08-18T04:01:37.178Z,0
2018-08-18T04:02:37.030Z,0
2018-08-18T04:03:36.961Z,0
2018-08-18T04:04:37.034Z,0
2018-08-18T04:05:36.961Z,0
2018-08-18T04:06:36.958Z,0
2018-08-18T04:07:37.031Z,0
2018-08-18T04:08:36.965Z,0
2018-08-18T04:09:36.964Z,0
2018-08-18T04:10:36.967Z,0
2018-08-18T04:11:37.035Z,0
2018-08-18T04:12:37.034Z,0
2018-08-18T04:13:36.967Z,0
2018-08-18T04:14:37.042Z,0
2018-08-18T04:15:37.041Z,0
2018-08-18T04:16:36.969Z,0
2018-08-18T04:17:36.966Z,0
2018-08-18T04:18:37.064Z,0
2018-08-18T04:19:37.042Z,0
2018-08-18T04:20:36.975Z,0
2018-08-18T04:21:37.042Z,0
2018-08-18T04:22:36.971Z,0
2018-08-18T04:23:37.050Z,0
2018-08-18T04:24:36.991Z,0
2018-08-18T04:25:37.047Z,0
2018-08-18T04:26:37.049Z,0
2018-08-18T04:27:36.987Z,0
2018-08-18T04:28:37.050Z,0
2018-08-18T04:29:37.049Z,0
2018-08-18T04:30:36.977Z,0
2018-08-18T04:31:37.049Z,0
2018-08-18T04:32:36.976Z,0
2018-08-18T04:33:37.053Z,0
2018-08-18T04:34:36.971Z,0
2018-08-18T04:35:37.052Z,0
2018-08-18T04:36:36.979Z,0
2018-08-18T04:37:36.978Z,0
2018-08-18T04:38:36.980Z,0
2018-08-18T04:39:37.055Z,0
2018-08-18T04:40:36.982Z,0
2018-08-18T04:41:37.065Z,0
2018-08-18T04:42:37.214Z,0
2018-08-18T04:43:36.989Z,0
2018-08-18T04:44:36.998Z,0
2018-08-18T04:45:37.057Z,0
2018-08-18T04:46:37.059Z,0
2018-08-18T04:47:37.019Z,0
2018-08-18T04:48:37.018Z,0
2018-08-18T04:49:37.007Z,0
2018-08-18T04:50:37.087Z,0
2018-08-18T04:51:36.962Z,16
2018-08-18T04:52:37.062Z,16
2018-08-18T04:53:37.023Z,16
2018-08-18T04:54:36.964Z,18
2018-08-18T04:55:37.005Z,17
2018-08-18T04:56:37.009Z,20
2018-08-18T04:57:37.026Z,20
2018-08-18T04:58:36.962Z,19
2018-08-18T04:59:36.950Z,19
2018-08-18T05:00:37.015Z,18
2018-08-18T05:01:37.029Z,16
2018-08-18T05:02:37.055Z,17
2018-08-18T05:03:37.037Z,17
2018-08-18T05:04:37.033Z,17
2018-08-18T05:05:37.058Z,17
2018-08-18T05:06:37.041Z,17
2018-08-18T05:07:36.974Z,18
2018-08-18T05:08:36.929Z,19
2018-08-18T05:09:36.951Z,20
2018-08-18T05:10:36.957Z,21
2018-08-18T05:11:37.097Z,21
2018-08-18T05:12:37.040Z,21
2018-08-18T05:13:37.004Z,21
2018-08-18T05:14:37.037Z,21
2018-08-18T05:15:36.980Z,21
2018-08-18T05:16:37.026Z,22
2018-08-18T05:17:37.018Z,22
2018-08-18T05:18:36.908Z,23
2018-08-18T05:19:36.971Z,24
2018-08-18T05:20:37.025Z,26
2018-08-18T05:21:37.020Z,27
2018-08-18T05:22:37.021Z,29
2018-08-18T05:23:37.033Z,32
2018-08-18T05:24:36.935Z,34
2018-08-18T05:25:36.949Z,36
2018-08-18T05:26:36.976Z,42
2018-08-18T05:27:37.019Z,45
2018-08-18T05:28:37.100Z,47
2018-08-18T05:29:37.015Z,47
2018-08-18T05:30:37.091Z,46
2018-08-18T05:31:36.964Z,45
2018-08-18T05:32:37.015Z,44
2018-08-18T05:33:37.095Z,42
2018-08-18T05:34:37.152Z,43
2018-08-18T05:35:37.094Z,45
2018-08-18T05:36:37.231Z,47
2018-08-18T05:37:37.028Z,49
2018-08-18T05:38:37.022Z,51
2018-08-18T05:39:37.022Z,55
2018-08-18T05:40:37.027Z,57
2018-08-18T05:41:37.095Z,60
2018-08-18T05:42:37.284Z,62
2018-08-18T05:43:37.027Z,64
2018-08-18T05:44:37.097Z,70
2018-08-18T05:45:37.028Z,79
2018-08-18T05:46:37.099Z,89
2018-08-18T05:47:37.059Z,103
2018-08-18T05:48:37.102Z,113
2018-08-18T05:49:37.101Z,114
2018-08-18T05:50:37.033Z,121
2018-08-18T05:51:37.033Z,123
2018-08-18T05:52:37.107Z,123
2018-08-18T05:53:37.037Z,124
2018-08-18T05:54:37.109Z,122
2018-08-18T05:55:37.034Z,127
2018-08-18T05:56:37.033Z,133
2018-08-18T05:57:37.059Z,125
2018-08-18T05:58:36.967Z,119
2018-08-18T05:59:37.019Z,124
2018-08-18T06:00:37.059Z,126
2018-08-18T06:01:36.997Z,118
2018-08-18T06:02:37.068Z,118
2018-08-18T06:03:37.038Z,121
2018-08-18T06:04:37.075Z,119
2018-08-18T06:05:37.086Z,125
2018-08-18T06:06:36.995Z,129
2018-08-18T06:07:36.995Z,126
2018-08-18T06:08:37.027Z,120
2018-08-18T06:09:37.120Z,111
2018-08-18T06:10:36.982Z,102
2018-08-18T06:11:36.979Z,99
2018-08-18T06:12:36.978Z,98
2018-08-18T06:13:37.071Z,97
2018-08-18T06:14:37.108Z,102
2018-08-18T06:15:37.082Z,99
2018-08-18T06:16:37.091Z,101
2018-08-18T06:17:37.148Z,101
2018-08-18T06:18:37.046Z,104
2018-08-18T06:19:37.053Z,107
2018-08-18T06:20:37.122Z,111
2018-08-18T06:21:37.130Z,112
2018-08-18T06:22:37.054Z,115
2018-08-18T06:23:37.126Z,124
2018-08-18T06:24:37.020Z,138
2018-08-18T06:25:37.056Z,146
2018-08-18T06:26:37.128Z,150
2018-08-18T06:27:37.060Z,154
2018-08-18T06:28:37.129Z,168
2018-08-18T06:29:37.058Z,171
2018-08-18T06:30:37.133Z,162
2018-08-18T06:31:37.056Z,115
2018-08-18T06:32:37.133Z,132
2018-08-18T06:33:37.132Z,164
2018-08-18T06:34:37.224Z,170
2018-08-18T06:35:37.063Z,172
2018-08-18T06:36:37.133Z,175
2018-08-18T06:37:37.068Z,169
2018-08-18T06:38:37.018Z,169
2018-08-18T06:39:37.113Z,163
2018-08-18T06:40:37.069Z,160
2018-08-18T06:41:37.199Z,162
2018-08-18T06:42:37.165Z,189
2018-08-18T06:43:37.141Z,198
2018-08-18T06:44:37.072Z,202
2018-08-18T06:45:37.141Z,221
2018-08-18T06:46:37.139Z,223
2018-08-18T06:47:37.021Z,218
2018-08-18T06:48:37.100Z,217
2018-08-18T06:49:37.113Z,217
2018-08-18T06:50:37.007Z,212
2018-08-18T06:51:37.103Z,215
2018-08-18T06:52:37.002Z,230
2018-08-18T06:53:37.004Z,216
2018-08-18T06:54:37.137Z,222
2018-08-18T06:55:37.074Z,228
2018-08-18T06:56:37.132Z,222
2018-08-18T06:57:37.080Z,212
2018-08-18T06:58:37.152Z,238
2018-08-18T06:59:37.116Z,262
2018-08-18T07:00:37.152Z,276
2018-08-18T07:01:37.077Z,291
2018-08-18T07:02:37.155Z,287
2018-08-18T07:03:37.088Z,293
2018-08-18T07:04:37.165Z,282
2018-08-18T07:05:37.081Z,292
2018-08-18T07:06:37.167Z,292
2018-08-18T07:07:37.164Z,329
2018-08-18T07:08:37.083Z,333
2018-08-18T07:09:37.159Z,346
2018-08-18T07:10:37.086Z,315
2018-08-18T07:11:37.191Z,313
2018-08-18T07:12:37.090Z,356
2018-08-18T07:13:37.161Z,384
2018-08-18T07:14:37.162Z,369
2018-08-18T07:15:37.116Z,404
2018-08-18T07:16:37.164Z,426
2018-08-18T07:17:37.089Z,432
2018-08-18T07:18:37.164Z,432
2018-08-18T07:19:37.166Z,431
2018-08-18T07:20:37.095Z,427
2018-08-18T07:21:37.168Z,439
2018-08-18T07:22:37.099Z,444
2018-08-18T07:23:37.168Z,445
2018-08-18T07:24:37.097Z,453
2018-08-18T07:25:37.100Z,451
2018-08-18T07:26:37.175Z,451
2018-08-18T07:27:37.101Z,461
2018-08-18T07:28:37.325Z,503
2018-08-18T07:29:37.172Z,510
2018-08-18T07:30:37.101Z,514
2018-08-18T07:31:37.095Z,518
2018-08-18T07:32:37.174Z,506
2018-08-18T07:33:37.175Z,508
2018-08-18T07:34:37.107Z,530
2018-08-18T07:35:37.175Z,533
2018-08-18T07:36:37.177Z,535
2018-08-18T07:37:37.239Z,541
2018-08-18T07:38:37.121Z,543
2018-08-18T07:39:37.104Z,536
2018-08-18T07:40:37.146Z,554
2018-08-18T07:41:37.169Z,559
2018-08-18T07:42:37.125Z,563
2018-08-18T07:43:37.167Z,567
2018-08-18T07:44:37.144Z,565
2018-08-18T07:45:37.180Z,554
2018-08-18T07:46:37.083Z,564
2018-08-18T07:47:37.141Z,576
2018-08-18T07:48:37.051Z,577
2018-08-18T07:49:37.149Z,581
2018-08-18T07:50:37.068Z,582
2018-08-18T07:51:37.055Z,562
2018-08-18T07:52:37.111Z,578
2018-08-18T07:53:37.127Z,580
2018-08-18T07:54:37.051Z,581
2018-08-18T07:55:37.151Z,578
2018-08-18T07:56:37.143Z,580
2018-08-18T07:57:37.193Z,589
2018-08-18T07:58:37.126Z,582
2018-08-18T07:59:37.216Z,590
2018-08-18T08:00:37.127Z,611
2018-08-18T08:01:37.196Z,614
2018-08-18T08:02:37.122Z,614
2018-08-18T08:03:37.195Z,600
2018-08-18T08:04:37.126Z,603
2018-08-18T08:05:37.262Z,618
2018-08-18T08:06:37.199Z,626
2018-08-18T08:07:37.084Z,629
2018-08-18T08:08:37.182Z,627
2018-08-18T08:09:37.147Z,633
2018-08-18T08:10:37.090Z,622
2018-08-18T08:11:37.056Z,638
2018-08-18T08:12:37.284Z,645
2018-08-18T08:13:37.085Z,649
2018-08-18T08:14:37.103Z,653
2018-08-18T08:15:37.063Z,659
2018-08-18T08:16:37.089Z,647
2018-08-18T08:17:37.150Z,657
2018-08-18T08:18:37.116Z,682
2018-08-18T08:19:37.157Z,685
2018-08-18T08:20:37.158Z,688
2018-08-18T08:21:37.155Z,693
2018-08-18T08:22:37.168Z,685
2018-08-18T08:23:37.068Z,691
2018-08-18T08:24:37.103Z,714
2018-08-18T08:25:37.093Z,724
2018-08-18T08:26:37.062Z,731
2018-08-18T08:27:37.151Z,732
2018-08-18T08:28:37.197Z,726
2018-08-18T08:29:37.182Z,727
2018-08-18T08:30:37.156Z,749
2018-08-18T08:31:37.201Z,755
2018-08-18T08:32:37.155Z,745
2018-08-18T08:33:37.097Z,732
2018-08-18T08:34:37.157Z,727
2018-08-18T08:35:37.151Z,738
2018-08-18T08:36:37.146Z,736
2018-08-18T08:37:37.181Z,729
2018-08-18T08:38:37.219Z,722
2018-08-18T08:39:37.150Z,712
2018-08-18T08:40:37.222Z,699
2018-08-18T08:41:37.147Z,718
2018-08-18T08:42:37.222Z,731
2018-08-18T08:43:37.146Z,725
2018-08-18T08:44:37.226Z,741
2018-08-18T08:45:37.225Z,753
2018-08-18T08:46:37.221Z,760
2018-08-18T08:47:37.181Z,758
2018-08-18T08:48:37.225Z,754
2018-08-18T08:49:37.154Z,731
2018-08-18T08:50:37.230Z,750
2018-08-18T08:51:37.233Z,754
2018-08-18T08:52:37.157Z,753
2018-08-18T08:53:37.231Z,746
2018-08-18T08:54:37.231Z,775
2018-08-18T08:55:37.157Z,769
2018-08-18T08:56:37.234Z,774
2018-08-18T08:57:37.103Z,770
2018-08-18T08:58:37.245Z,771
2018-08-18T08:59:37.125Z,208
2018-08-18T09:00:37.179Z,225
2018-08-18T09:01:37.125Z,815
2018-08-18T09:02:37.180Z,829
2018-08-18T09:03:37.091Z,833
2018-08-18T09:04:37.184Z,828
2018-08-18T09:05:37.131Z,393
2018-08-18T09:06:37.135Z,221
2018-08-18T09:07:37.076Z,869
2018-08-18T09:08:37.126Z,253
2018-08-18T09:09:37.100Z,278
2018-08-18T09:10:37.141Z,611
2018-08-18T09:11:37.196Z,847
2018-08-18T09:12:37.185Z,879
2018-08-18T09:13:37.210Z,864
2018-08-18T09:14:37.197Z,850
2018-08-18T09:15:37.128Z,852
2018-08-18T09:16:37.198Z,842
2018-08-18T09:17:37.127Z,793
2018-08-18T09:18:37.211Z,866
2018-08-18T09:19:37.216Z,881
2018-08-18T09:20:37.216Z,886
2018-08-18T09:21:37.237Z,905
2018-08-18T09:22:37.148Z,904
2018-08-18T09:23:37.241Z,892
2018-08-18T09:24:37.124Z,886
2018-08-18T09:25:37.221Z,888
2018-08-18T09:26:37.196Z,879
2018-08-18T09:27:37.151Z,870
2018-08-18T09:28:37.154Z,867
2018-08-18T09:29:37.137Z,864
2018-08-18T09:30:37.158Z,891
2018-08-18T09:31:37.137Z,862
2018-08-18T09:32:37.127Z,235
2018-08-18T09:33:37.231Z,908
2018-08-18T09:34:37.228Z,910
2018-08-18T09:35:37.159Z,900
2018-08-18T09:36:37.246Z,895
2018-08-18T09:37:37.232Z,892
2018-08-18T09:38:37.187Z,924
2018-08-18T09:39:37.264Z,246
2018-08-18T09:40:37.189Z,720
2018-08-18T09:41:37.264Z,903
2018-08-18T09:42:37.197Z,282
2018-08-18T09:43:37.265Z,255
2018-08-18T09:44:37.220Z,587
2018-08-18T09:45:37.292Z,853
2018-08-18T09:46:37.222Z,815
2018-08-18T09:47:37.269Z,896
2018-08-18T09:48:37.286Z,921
2018-08-18T09:49:37.273Z,924
2018-08-18T09:50:37.199Z,933
2018-08-18T09:51:37.195Z,934
2018-08-18T09:52:37.206Z,934
2018-08-18T09:53:37.272Z,928
2018-08-18T09:54:37.203Z,744
2018-08-18T09:55:37.277Z,941
2018-08-18T09:56:37.274Z,945
2018-08-18T09:57:37.275Z,945
2018-08-18T09:58:37.214Z,822
2018-08-18T09:59:37.206Z,801
2018-08-18T10:00:37.159Z,360
2018-08-18T10:01:37.249Z,940
2018-08-18T10:02:37.304Z,498
2018-08-18T10:03:37.280Z,990
2018-08-18T10:04:37.209Z,801
2018-08-18T10:05:37.279Z,955
2018-08-18T10:06:37.251Z,760
2018-08-18T10:07:37.283Z,601
2018-08-18T10:08:37.211Z,314
2018-08-18T10:09:37.282Z,927
2018-08-18T10:10:37.211Z,847
2018-08-18T10:11:37.281Z,336
2018-08-18T10:12:37.218Z,615
2018-08-18T10:13:37.289Z,940
2018-08-18T10:14:37.214Z,890
2018-08-18T10:15:37.216Z,944
2018-08-18T10:16:37.211Z,927
2018-08-18T10:17:37.290Z,939
2018-08-18T10:18:37.181Z,933
2018-08-18T10:19:37.238Z,935
2018-08-18T10:20:37.218Z,888
2018-08-18T10:21:37.231Z,842
2018-08-18T10:22:37.183Z,255
2018-08-18T10:23:37.182Z,823
2018-08-18T10:24:37.177Z,793
2018-08-18T10:25:37.235Z,892
2018-08-18T10:26:37.145Z,800
2018-08-18T10:27:37.187Z,795
2018-08-18T10:28:37.224Z,833
2018-08-18T10:29:37.255Z,747
2018-08-18T10:30:37.257Z,881
2018-08-18T10:31:37.225Z,969
2018-08-18T10:32:37.240Z,958
2018-08-18T10:33:37.226Z,948
2018-08-18T10:34:37.264Z,925
2018-08-18T10:35:37.225Z,912
2018-08-18T10:36:37.204Z,906
2018-08-18T10:37:37.186Z,923
2018-08-18T10:38:37.302Z,934
2018-08-18T10:39:37.234Z,937
2018-08-18T10:40:37.305Z,944
2018-08-18T10:41:37.234Z,962
2018-08-18T10:42:37.305Z,969
2018-08-18T10:43:37.241Z,975
2018-08-18T10:44:37.311Z,955
2018-08-18T10:45:37.308Z,936
2018-08-18T10:46:37.233Z,917
2018-08-18T10:47:37.311Z,900
2018-08-18T10:48:37.139Z,909
2018-08-18T10:49:37.260Z,885
2018-08-18T10:50:37.164Z,922
2018-08-18T10:51:37.409Z,930
2018-08-18T10:52:37.143Z,933
2018-08-18T10:53:37.143Z,909
2018-08-18T10:54:37.467Z,909
2018-08-18T10:55:37.200Z,930
2018-08-18T10:56:37.202Z,938
2018-08-18T10:57:37.207Z,931
2018-08-18T10:58:37.388Z,931
2018-08-18T10:59:37.248Z,921
2018-08-18T11:00:37.252Z,920
2018-08-18T11:01:37.271Z,908
2018-08-18T11:02:37.352Z,924
2018-08-18T11:03:37.249Z,921
2018-08-18T11:04:37.322Z,921
2018-08-18T11:05:37.249Z,912
2018-08-18T11:06:37.325Z,924
2018-08-18T11:07:37.250Z,942
2018-08-18T11:08:37.322Z,905
2018-08-18T11:09:37.257Z,924
2018-08-18T11:10:37.325Z,922
2018-08-18T11:11:37.258Z,895
2018-08-18T11:12:37.336Z,902
2018-08-18T11:13:37.256Z,926
2018-08-18T11:14:37.328Z,931
2018-08-18T11:15:37.265Z,944
2018-08-18T11:16:37.263Z,923
2018-08-18T11:17:37.334Z,924
2018-08-18T11:18:37.274Z,942
2018-08-18T11:19:37.257Z,930
2018-08-18T11:20:37.204Z,936
2018-08-18T11:21:37.290Z,937
2018-08-18T11:22:37.297Z,941
2018-08-18T11:23:37.292Z,919
2018-08-18T11:24:37.197Z,925
2018-08-18T11:25:37.369Z,948
2018-08-18T11:26:37.276Z,940
2018-08-18T11:27:37.299Z,929
2018-08-18T11:28:37.304Z,936
2018-08-18T11:29:37.291Z,912
2018-08-18T11:30:37.252Z,935
2018-08-18T11:31:37.214Z,933
2018-08-18T11:32:37.251Z,924
2018-08-18T11:33:37.267Z,937
2018-08-18T11:34:37.341Z,937
2018-08-18T11:35:37.341Z,933
2018-08-18T11:36:37.269Z,918
2018-08-18T11:37:37.343Z,942
2018-08-18T11:38:37.181Z,946
2018-08-18T11:39:37.182Z,942
2018-08-18T11:40:37.268Z,922
2018-08-18T11:41:37.294Z,932
2018-08-18T11:42:37.199Z,938
2018-08-18T11:43:37.296Z,945
2018-08-18T11:44:37.310Z,945
2018-08-18T11:45:37.277Z,922
2018-08-18T11:46:37.275Z,909
2018-08-18T11:47:37.236Z,884
2018-08-18T11:48:37.293Z,888
2018-08-18T11:49:37.308Z,874
2018-08-18T11:50:37.241Z,899
2018-08-18T11:51:37.237Z,929
2018-08-18T11:52:37.320Z,934
2018-08-18T11:53:37.310Z,930
2018-08-18T11:54:37.225Z,913
2018-08-18T11:55:37.260Z,895
2018-08-18T11:56:37.316Z,835
2018-08-18T11:57:37.241Z,888
2018-08-18T11:58:37.289Z,906
2018-08-18T11:59:37.360Z,892
2018-08-18T12:00:37.287Z,867
2018-08-18T12:01:37.363Z,877
2018-08-18T12:02:37.289Z,859
2018-08-18T12:03:37.364Z,903
2018-08-18T12:04:37.291Z,916
2018-08-18T12:05:37.290Z,910
2018-08-18T12:06:37.370Z,910
2018-08-18T12:07:37.292Z,917
2018-08-18T12:08:37.367Z,924
2018-08-18T12:09:37.298Z,915
2018-08-18T12:10:37.388Z,900
2018-08-18T12:11:37.365Z,903
2018-08-18T12:12:37.302Z,893
2018-08-18T12:13:37.388Z,890
2018-08-18T12:14:37.300Z,916
2018-08-18T12:15:37.299Z,915
2018-08-18T12:16:37.375Z,910
2018-08-18T12:17:37.302Z,902
2018-08-18T12:18:37.312Z,899
2018-08-18T12:19:37.284Z,910
2018-08-18T12:20:37.274Z,902
2018-08-18T12:21:37.271Z,898
2018-08-18T12:22:37.251Z,896
2018-08-18T12:23:37.315Z,872
2018-08-18T12:24:37.361Z,873
2018-08-18T12:25:37.320Z,878
2018-08-18T12:26:37.249Z,899
2018-08-18T12:27:37.340Z,898
2018-08-18T12:28:37.331Z,894
2018-08-18T12:29:37.340Z,907
2018-08-18T12:30:37.276Z,894
2018-08-18T12:31:37.318Z,887
2018-08-18T12:32:37.319Z,902
2018-08-18T12:33:37.333Z,897
2018-08-18T12:34:37.213Z,891
2018-08-18T12:35:37.214Z,878
2018-08-18T12:36:37.369Z,880
2018-08-18T12:37:37.373Z,886
2018-08-18T12:38:37.313Z,888
2018-08-18T12:39:37.367Z,886
2018-08-18T12:40:37.268Z,870
2018-08-18T12:41:37.262Z,866
2018-08-18T12:42:37.316Z,866
2018-08-18T12:43:37.341Z,872
2018-08-18T12:44:37.267Z,871
2018-08-18T12:45:37.217Z,866
2018-08-18T12:46:37.211Z,859
2018-08-18T12:47:37.393Z,848
2018-08-18T12:48:37.250Z,868
2018-08-18T12:49:37.303Z,866
2018-08-18T12:50:37.284Z,861
2018-08-18T12:51:37.230Z,859
2018-08-18T12:52:37.331Z,864
2018-08-18T12:53:37.336Z,858
2018-08-18T12:54:37.296Z,859
2018-08-18T12:55:37.248Z,865
2018-08-18T12:56:37.229Z,866
2018-08-18T12:57:37.355Z,860
2018-08-18T12:58:37.488Z,858
2018-08-18T12:59:37.385Z,856
2018-08-18T13:00:37.307Z,833
2018-08-18T13:01:37.305Z,850
2018-08-18T13:02:37.307Z,851
2018-08-18T13:03:37.365Z,852
2018-08-18T13:04:37.302Z,851
2018-08-18T13:05:37.374Z,847
2018-08-18T13:06:37.365Z,816
2018-08-18T13:07:37.353Z,835
2018-08-18T13:08:37.339Z,838
2018-08-18T13:09:37.410Z,840
2018-08-18T13:10:37.333Z,832
2018-08-18T13:11:37.428Z,826
2018-08-18T13:12:37.407Z,800
2018-08-18T13:13:37.411Z,811
2018-08-18T13:14:37.335Z,811
2018-08-18T13:15:37.341Z,813
2018-08-18T13:16:37.409Z,812
2018-08-18T13:17:37.342Z,794
2018-08-18T13:18:37.427Z,793
2018-08-18T13:19:37.421Z,819
2018-08-18T13:20:37.354Z,823
2018-08-18T13:21:37.420Z,825
2018-08-18T13:22:37.414Z,823
2018-08-18T13:23:37.422Z,811
2018-08-18T13:24:37.419Z,809
2018-08-18T13:25:37.345Z,802
2018-08-18T13:26:37.425Z,821
2018-08-18T13:27:37.347Z,814
2018-08-18T13:28:37.308Z,809
2018-08-18T13:29:37.275Z,798
2018-08-18T13:30:37.255Z,796
2018-08-18T13:31:37.290Z,808
2018-08-18T13:32:37.310Z,805
2018-08-18T13:33:37.317Z,805
2018-08-18T13:34:37.366Z,803
2018-08-18T13:35:37.321Z,798
2018-08-18T13:36:37.313Z,789
2018-08-18T13:37:37.319Z,797
2018-08-18T13:38:37.429Z,794
2018-08-18T13:39:37.357Z,790
2018-08-18T13:40:37.431Z,787
2018-08-18T13:41:37.361Z,775
2018-08-18T13:42:37.430Z,774
2018-08-18T13:43:37.365Z,782
2018-08-18T13:44:37.432Z,784
2018-08-18T13:45:37.365Z,785
2018-08-18T13:46:37.387Z,781
2018-08-18T13:47:37.439Z,774
2018-08-18T13:48:37.362Z,755
2018-08-18T13:49:37.365Z,666
2018-08-18T13:50:37.438Z,758
2018-08-18T13:51:37.363Z,759
2018-08-18T13:52:37.473Z,760
2018-08-18T13:53:37.367Z,757
2018-08-18T13:54:37.439Z,749
2018-08-18T13:55:37.367Z,747
2018-08-18T13:56:37.443Z,754
2018-08-18T13:57:37.369Z,755
2018-08-18T13:58:37.464Z,743
2018-08-18T13:59:37.369Z,730
2018-08-18T14:00:37.368Z,722
2018-08-18T14:01:37.439Z,721
2018-08-18T14:02:37.370Z,715
2018-08-18T14:03:37.444Z,727
2018-08-18T14:04:37.374Z,725
2018-08-18T14:05:37.324Z,722
2018-08-18T14:06:37.380Z,722
2018-08-18T14:07:37.374Z,702
2018-08-18T14:08:37.472Z,709